Scholes International At Galveston Airport Galveston US
ICAO: KGLS
IATA: GLS
Category: Medium
Scheduled Services: No

Elevation: 6 ft
TransAlt. 18000 ft.

Airport Communications:
HOUSTON APP/DEP:134.45
ASOS:119.275
CLNC DEL:135.35
CTAF:120.575
GND:118.625
MONTGOMERY CO RDO:122.15
TWR:120.575
UNICOM:123.05

KGLS Zoom In..

If Map Doesn't Load, Click Here

Runways:

(A) RW 14 length 6000 ft width 150 ft
ILS 111.70 / hdg 138

(B) RW 18 length 6001 ft width 150 ft
---- / hdg 179

(C) RW 32 length 6000 ft width 150 ft
---- / hdg 318

(D) RW 36 length 6001 ft width 150 ft
---- / hdg 359

Location; KGLS
Day. 21 / Time. 15.12 Zulu
* Altimeter: 29.98
* Temperature: 31° c. 87.8°f.
* Wind from: 130° Speed 11 kn.
Dewpoint: 27° c.
Visibility: 10 Statute Miles.
Clouds: Broken 1900 ft.
Clouds: Broken 2500 ft.

KGLS 211512Z 13011KT 10SM BKN019 BKN025 31/27 A2998 RMK AO2 T03110272


Wind From 130°
Speed 11 kn.

 
 
jpsmedia.com for Web Design worldairports.se 2018   terms of use